sensor_id;sensor_type;location;lat;lon;timestamp;P1;durP1;ratioP1;P2;durP2;ratioP2
46931;SDS011;32670;51.464;11.964;2022-09-12T00:02:21;5.93;;;5.40;;
46931;SDS011;32670;51.464;11.964;2022-09-12T00:04:46;5.87;;;5.23;;
46931;SDS011;32670;51.464;11.964;2022-09-12T00:07:12;6.27;;;5.67;;
46931;SDS011;32670;51.464;11.964;2022-09-12T00:09:37;6.77;;;6.07;;
46931;SDS011;32670;51.464;11.964;2022-09-12T00:12:03;5.70;;;5.20;;
46931;SDS011;32670;51.464;11.964;2022-09-12T00:14:29;6.60;;;5.73;;
46931;SDS011;32670;51.464;11.964;2022-09-12T00:16:58;5.93;;;5.43;;
46931;SDS011;32670;51.464;11.964;2022-09-12T00:19:24;6.50;;;5.80;;
46931;SDS011;32670;51.464;11.964;2022-09-12T00:21:50;6.33;;;5.73;;
46931;SDS011;32670;51.464;11.964;2022-09-12T00:24:16;7.33;;;6.10;;
46931;SDS011;32670;51.464;11.964;2022-09-12T00:26:41;6.70;;;6.10;;
46931;SDS011;32670;51.464;11.964;2022-09-12T00:29:07;6.77;;;6.07;;
46931;SDS011;32670;51.464;11.964;2022-09-12T00:31:38;7.07;;;5.80;;
46931;SDS011;32670;51.464;11.964;2022-09-12T00:34:04;6.40;;;5.80;;
46931;SDS011;32670;51.464;11.964;2022-09-12T00:36:29;7.20;;;6.07;;
46931;SDS011;32670;51.464;11.964;2022-09-12T00:38:55;6.20;;;5.63;;
46931;SDS011;32670;51.464;11.964;2022-09-12T00:41:22;5.77;;;5.27;;
46931;SDS011;32670;51.464;11.964;2022-09-12T00:43:57;6.40;;;5.77;;
46931;SDS011;32670;51.464;11.964;2022-09-12T00:48:56;6.17;;;5.57;;
46931;SDS011;32670;51.464;11.964;2022-09-12T00:51:25;6.13;;;5.53;;
46931;SDS011;32670;51.464;11.964;2022-09-12T00:53:54;6.60;;;5.90;;
46931;SDS011;32670;51.464;11.964;2022-09-12T00:56:21;6.23;;;5.63;;
46931;SDS011;32670;51.464;11.964;2022-09-12T00:58:55;7.67;;;6.47;;
46931;SDS011;32670;51.464;11.964;2022-09-12T01:01:26;6.33;;;5.73;;
46931;SDS011;32670;51.464;11.964;2022-09-12T01:03:51;7.33;;;5.80;;
46931;SDS011;32670;51.464;11.964;2022-09-12T01:06:19;6.70;;;6.10;;
46931;SDS011;32670;51.464;11.964;2022-09-12T01:08:47;7.33;;;5.90;;
46931;SDS011;32670;51.464;11.964;2022-09-12T01:11:16;6.50;;;5.90;;
46931;SDS011;32670;51.464;11.964;2022-09-12T01:13:43;6.83;;;6.23;;
46931;SDS011;32670;51.464;11.964;2022-09-12T01:16:09;7.77;;;5.73;;
46931;SDS011;32670;51.464;11.964;2022-09-12T01:18:50;7.17;;;6.17;;
46931;SDS011;32670;51.464;11.964;2022-09-12T01:21:47;6.50;;;5.90;;
46931;SDS011;32670;51.464;11.964;2022-09-12T01:33:02;6.53;;;5.93;;
46931;SDS011;32670;51.464;11.964;2022-09-12T01:35:59;6.43;;;5.83;;
46931;SDS011;32670;51.464;11.964;2022-09-12T01:38:48;6.47;;;5.97;;
46931;SDS011;32670;51.464;11.964;2022-09-12T01:41:23;6.50;;;5.93;;
46931;SDS011;32670;51.464;11.964;2022-09-12T01:44:07;6.67;;;6.17;;
46931;SDS011;32670;51.464;11.964;2022-09-12T01:46:44;6.80;;;6.20;;
46931;SDS011;32670;51.464;11.964;2022-09-12T01:49:17;6.50;;;5.90;;
46931;SDS011;32670;51.464;11.964;2022-09-12T01:52:07;6.50;;;6.00;;
46931;SDS011;32670;51.464;11.964;2022-09-12T01:54:44;6.20;;;5.53;;
46931;SDS011;32670;51.464;11.964;2022-09-12T01:57:24;7.00;;;6.30;;
46931;SDS011;32670;51.464;11.964;2022-09-12T01:59:56;6.83;;;6.10;;
46931;SDS011;32670;51.464;11.964;2022-09-12T02:02:35;6.47;;;5.50;;
46931;SDS011;32670;51.464;11.964;2022-09-12T02:05:13;7.87;;;6.03;;
46931;SDS011;32670;51.464;11.964;2022-09-12T02:07:52;6.67;;;5.87;;
46931;SDS011;32670;51.464;11.964;2022-09-12T02:10:30;6.13;;;5.63;;
46931;SDS011;32670;51.464;11.964;2022-09-12T02:13:03;6.80;;;5.70;;
46931;SDS011;32670;51.464;11.964;2022-09-12T02:15:46;5.90;;;5.40;;
46931;SDS011;32670;51.464;11.964;2022-09-12T02:18:17;6.37;;;5.87;;
46931;SDS011;32670;51.464;11.964;2022-09-12T02:20:46;6.90;;;6.30;;
46931;SDS011;32670;51.464;11.964;2022-09-12T02:23:19;7.40;;;6.00;;
46931;SDS011;32670;51.464;11.964;2022-09-12T02:25:50;6.63;;;6.00;;
46931;SDS011;32670;51.464;11.964;2022-09-12T02:28:20;6.63;;;5.97;;
46931;SDS011;32670;51.464;11.964;2022-09-12T02:33:46;7.03;;;6.43;;
46931;SDS011;32670;51.464;11.964;2022-09-12T02:36:24;6.83;;;6.17;;
46931;SDS011;32670;51.464;11.964;2022-09-12T02:39:07;7.57;;;6.80;;
46931;SDS011;32670;51.464;11.964;2022-09-12T02:41:33;7.20;;;6.50;;
46931;SDS011;32670;51.464;11.964;2022-09-12T02:43:59;7.07;;;6.37;;
46931;SDS011;32670;51.464;11.964;2022-09-12T02:46:28;6.90;;;6.20;;
46931;SDS011;32670;51.464;11.964;2022-09-12T02:49:00;7.00;;;6.30;;
46931;SDS011;32670;51.464;11.964;2022-09-12T02:51:25;6.97;;;6.27;;
46931;SDS011;32670;51.464;11.964;2022-09-12T02:53:51;6.40;;;5.80;;
46931;SDS011;32670;51.464;11.964;2022-09-12T02:56:20;7.50;;;6.80;;
46931;SDS011;32670;51.464;11.964;2022-09-12T02:58:50;7.10;;;6.50;;
46931;SDS011;32670;51.464;11.964;2022-09-12T03:01:32;9.43;;;7.93;;
46931;SDS011;32670;51.464;11.964;2022-09-12T03:04:18;11.83;;;7.60;;
46931;SDS011;32670;51.464;11.964;2022-09-12T03:07:12;8.03;;;7.07;;
46931;SDS011;32670;51.464;11.964;2022-09-12T03:10:23;7.53;;;6.70;;
46931;SDS011;32670;51.464;11.964;2022-09-12T03:13:12;9.07;;;6.43;;
46931;SDS011;32670;51.464;11.964;2022-09-12T03:16:10;7.40;;;6.70;;
46931;SDS011;32670;51.464;11.964;2022-09-12T03:18:49;7.43;;;6.70;;
46931;SDS011;32670;51.464;11.964;2022-09-12T03:24:18;7.80;;;5.80;;
46931;SDS011;32670;51.464;11.964;2022-09-12T03:26:54;5.87;;;5.37;;
46931;SDS011;32670;51.464;11.964;2022-09-12T03:29:25;6.93;;;5.57;;
46931;SDS011;32670;51.464;11.964;2022-09-12T03:31:53;5.63;;;5.13;;
46931;SDS011;32670;51.464;11.964;2022-09-12T03:34:21;5.73;;;5.23;;
46931;SDS011;32670;51.464;11.964;2022-09-12T03:36:47;5.50;;;5.00;;
46931;SDS011;32670;51.464;11.964;2022-09-12T03:39:14;5.60;;;5.10;;
46931;SDS011;32670;51.464;11.964;2022-09-12T03:41:39;6.03;;;4.70;;
46931;SDS011;32670;51.464;11.964;2022-09-12T03:44:05;5.60;;;5.10;;
46931;SDS011;32670;51.464;11.964;2022-09-12T03:46:30;5.97;;;5.20;;
46931;SDS011;32670;51.464;11.964;2022-09-12T03:48:56;5.83;;;5.30;;
46931;SDS011;32670;51.464;11.964;2022-09-12T03:51:21;5.70;;;5.20;;
46931;SDS011;32670;51.464;11.964;2022-09-12T03:53:47;5.63;;;5.00;;
46931;SDS011;32670;51.464;11.964;2022-09-12T03:56:12;5.67;;;5.00;;
46931;SDS011;32670;51.464;11.964;2022-09-12T03:58:38;6.23;;;5.63;;
46931;SDS011;32670;51.464;11.964;2022-09-12T04:01:07;6.13;;;5.53;;
46931;SDS011;32670;51.464;11.964;2022-09-12T04:03:46;5.53;;;5.13;;
46931;SDS011;32670;51.464;11.964;2022-09-12T04:06:14;5.50;;;5.00;;
46931;SDS011;32670;51.464;11.964;2022-09-12T04:08:42;5.83;;;5.33;;
46931;SDS011;32670;51.464;11.964;2022-09-12T04:11:11;5.73;;;5.23;;
46931;SDS011;32670;51.464;11.964;2022-09-12T04:13:39;5.60;;;5.10;;
46931;SDS011;32670;51.464;11.964;2022-09-12T04:16:06;5.10;;;4.70;;
46931;SDS011;32670;51.464;11.964;2022-09-12T04:18:32;5.60;;;5.17;;
46931;SDS011;32670;51.464;11.964;2022-09-12T04:20:58;5.67;;;5.27;;
46931;SDS011;32670;51.464;11.964;2022-09-12T04:23:28;5.37;;;4.97;;
46931;SDS011;32670;51.464;11.964;2022-09-12T04:25:54;4.93;;;4.53;;
46931;SDS011;32670;51.464;11.964;2022-09-12T04:28:24;5.23;;;4.83;;
46931;SDS011;32670;51.464;11.964;2022-09-12T04:30:50;4.90;;;4.53;;
46931;SDS011;32670;51.464;11.964;2022-09-12T04:33:15;5.07;;;4.67;;
46931;SDS011;32670;51.464;11.964;2022-09-12T04:35:41;5.00;;;4.50;;
46931;SDS011;32670;51.464;11.964;2022-09-12T04:38:07;4.77;;;4.37;;
46931;SDS011;32670;51.464;11.964;2022-09-12T04:40:33;4.70;;;4.30;;
46931;SDS011;32670;51.464;11.964;2022-09-12T04:42:59;4.63;;;4.33;;
46931;SDS011;32670;51.464;11.964;2022-09-12T04:45:24;5.10;;;4.70;;
46931;SDS011;32670;51.464;11.964;2022-09-12T04:47:50;4.30;;;4.00;;
46931;SDS011;32670;51.464;11.964;2022-09-12T04:50:16;4.80;;;4.40;;
46931;SDS011;32670;51.464;11.964;2022-09-12T04:52:41;5.93;;;4.30;;
46931;SDS011;32670;51.464;11.964;2022-09-12T04:55:07;4.33;;;4.03;;
46931;SDS011;32670;51.464;11.964;2022-09-12T04:57:34;4.30;;;4.00;;
46931;SDS011;32670;51.464;11.964;2022-09-12T04:59:59;4.53;;;4.20;;
46931;SDS011;32670;51.464;11.964;2022-09-12T05:02:26;4.80;;;4.40;;
46931;SDS011;32670;51.464;11.964;2022-09-12T05:04:51;8.93;;;4.20;;
46931;SDS011;32670;51.464;11.964;2022-09-12T05:07:18;4.50;;;4.10;;
46931;SDS011;32670;51.464;11.964;2022-09-12T05:09:43;4.83;;;4.43;;
46931;SDS011;32670;51.464;11.964;2022-09-12T05:12:09;4.40;;;4.00;;
46931;SDS011;32670;51.464;11.964;2022-09-12T05:14:35;4.60;;;4.20;;
46931;SDS011;32670;51.464;11.964;2022-09-12T05:17:01;7.17;;;4.30;;
46931;SDS011;32670;51.464;11.964;2022-09-12T05:19:28;4.17;;;3.83;;
46931;SDS011;32670;51.464;11.964;2022-09-12T05:21:54;4.40;;;4.10;;
46931;SDS011;32670;51.464;11.964;2022-09-12T05:24:20;4.53;;;3.93;;
46931;SDS011;32670;51.464;11.964;2022-09-12T05:26:45;4.30;;;3.90;;
46931;SDS011;32670;51.464;11.964;2022-09-12T05:29:11;4.80;;;3.83;;
46931;SDS011;32670;51.464;11.964;2022-09-12T05:31:37;5.13;;;4.47;;
46931;SDS011;32670;51.464;11.964;2022-09-12T05:34:03;6.00;;;4.70;;
46931;SDS011;32670;51.464;11.964;2022-09-12T05:36:33;4.40;;;4.03;;
46931;SDS011;32670;51.464;11.964;2022-09-12T05:39:00;6.47;;;5.53;;
46931;SDS011;32670;51.464;11.964;2022-09-12T05:41:28;8.57;;;7.30;;
46931;SDS011;32670;51.464;11.964;2022-09-12T05:43:55;8.07;;;7.33;;
46931;SDS011;32670;51.464;11.964;2022-09-12T05:46:26;8.50;;;7.60;;
46931;SDS011;32670;51.464;11.964;2022-09-12T05:48:53;7.60;;;6.90;;
46931;SDS011;32670;51.464;11.964;2022-09-12T05:51:20;9.30;;;7.47;;
46931;SDS011;32670;51.464;11.964;2022-09-12T05:53:49;7.67;;;6.83;;
46931;SDS011;32670;51.464;11.964;2022-09-12T05:56:21;7.97;;;7.17;;
46931;SDS011;32670;51.464;11.964;2022-09-12T05:58:52;7.47;;;6.73;;
46931;SDS011;32670;51.464;11.964;2022-09-12T06:01:18;7.40;;;6.60;;
46931;SDS011;32670;51.464;11.964;2022-09-12T06:03:45;7.67;;;7.07;;
46931;SDS011;32670;51.464;11.964;2022-09-12T06:06:16;7.27;;;6.57;;
46931;SDS011;32670;51.464;11.964;2022-09-12T06:08:45;7.77;;;6.20;;
46931;SDS011;32670;51.464;11.964;2022-09-12T06:11:13;7.00;;;6.30;;
46931;SDS011;32670;51.464;11.964;2022-09-12T06:13:40;7.30;;;6.60;;
46931;SDS011;32670;51.464;11.964;2022-09-12T06:16:17;7.43;;;6.20;;
46931;SDS011;32670;51.464;11.964;2022-09-12T06:18:53;9.00;;;6.70;;
46931;SDS011;32670;51.464;11.964;2022-09-12T06:21:20;8.53;;;6.37;;
46931;SDS011;32670;51.464;11.964;2022-09-12T06:23:47;7.13;;;6.43;;
46931;SDS011;32670;51.464;11.964;2022-09-12T06:26:14;9.27;;;6.67;;
46931;SDS011;32670;51.464;11.964;2022-09-12T06:28:41;6.83;;;6.17;;
46931;SDS011;32670;51.464;11.964;2022-09-12T06:31:13;6.70;;;6.10;;
46931;SDS011;32670;51.464;11.964;2022-09-12T06:33:45;7.47;;;6.03;;
46931;SDS011;32670;51.464;11.964;2022-09-12T06:36:13;6.93;;;6.07;;
46931;SDS011;32670;51.464;11.964;2022-09-12T06:38:44;7.90;;;5.93;;
46931;SDS011;32670;51.464;11.964;2022-09-12T06:41:10;6.50;;;5.73;;
46931;SDS011;32670;51.464;11.964;2022-09-12T06:43:37;6.47;;;5.97;;
46931;SDS011;32670;51.464;11.964;2022-09-12T06:46:04;7.60;;;6.83;;
46931;SDS011;32670;51.464;11.964;2022-09-12T06:48:31;7.03;;;6.40;;
46931;SDS011;32670;51.464;11.964;2022-09-12T06:51:01;8.97;;;7.60;;
46931;SDS011;32670;51.464;11.964;2022-09-12T06:53:32;8.63;;;7.63;;
46931;SDS011;32670;51.464;11.964;2022-09-12T06:56:01;8.43;;;7.57;;
46931;SDS011;32670;51.464;11.964;2022-09-12T06:58:34;9.93;;;8.33;;
46931;SDS011;32670;51.464;11.964;2022-09-12T07:01:02;10.17;;;8.20;;
46931;SDS011;32670;51.464;11.964;2022-09-12T07:03:29;10.77;;;8.70;;
46931;SDS011;32670;51.464;11.964;2022-09-12T07:05:55;10.40;;;8.70;;
46931;SDS011;32670;51.464;11.964;2022-09-12T07:08:21;12.77;;;8.27;;
46931;SDS011;32670;51.464;11.964;2022-09-12T07:10:47;10.17;;;9.17;;
46931;SDS011;32670;51.464;11.964;2022-09-12T07:13:12;10.53;;;9.43;;
46931;SDS011;32670;51.464;11.964;2022-09-12T07:15:38;12.37;;;10.70;;
46931;SDS011;32670;51.464;11.964;2022-09-12T07:18:04;15.77;;;12.23;;
46931;SDS011;32670;51.464;11.964;2022-09-12T07:20:30;12.83;;;11.53;;
46931;SDS011;32670;51.464;11.964;2022-09-12T07:22:57;14.37;;;11.33;;
46931;SDS011;32670;51.464;11.964;2022-09-12T07:25:23;15.23;;;13.57;;
46931;SDS011;32670;51.464;11.964;2022-09-12T07:27:48;13.80;;;12.50;;
46931;SDS011;32670;51.464;11.964;2022-09-12T07:30:15;16.83;;;14.37;;
46931;SDS011;32670;51.464;11.964;2022-09-12T07:32:41;17.13;;;14.77;;
46931;SDS011;32670;51.464;11.964;2022-09-12T07:35:07;20.87;;;15.80;;
46931;SDS011;32670;51.464;11.964;2022-09-12T07:37:32;16.07;;;14.00;;
46931;SDS011;32670;51.464;11.964;2022-09-12T07:39:58;18.47;;;14.67;;
46931;SDS011;32670;51.464;11.964;2022-09-12T07:42:23;20.83;;;13.83;;
46931;SDS011;32670;51.464;11.964;2022-09-12T07:44:48;19.77;;;17.70;;
46931;SDS011;32670;51.464;11.964;2022-09-12T07:47:16;20.30;;;15.60;;
46931;SDS011;32670;51.464;11.964;2022-09-12T07:49:42;21.57;;;16.10;;
46931;SDS011;32670;51.464;11.964;2022-09-12T07:52:07;17.80;;;15.90;;
46931;SDS011;32670;51.464;11.964;2022-09-12T07:54:33;17.90;;;15.60;;
46931;SDS011;32670;51.464;11.964;2022-09-12T07:56:58;25.07;;;15.80;;
46931;SDS011;32670;51.464;11.964;2022-09-12T07:59:24;21.83;;;17.40;;
46931;SDS011;32670;51.464;11.964;2022-09-12T08:01:49;20.17;;;18.00;;
46931;SDS011;32670;51.464;11.964;2022-09-12T08:04:15;19.97;;;17.80;;
46931;SDS011;32670;51.464;11.964;2022-09-12T08:06:41;20.00;;;16.33;;
46931;SDS011;32670;51.464;11.964;2022-09-12T08:09:06;22.67;;;18.97;;
46931;SDS011;32670;51.464;11.964;2022-09-12T08:11:32;23.93;;;18.33;;
46931;SDS011;32670;51.464;11.964;2022-09-12T08:13:58;25.63;;;22.17;;
46931;SDS011;32670;51.464;11.964;2022-09-12T08:16:26;23.10;;;20.63;;
46931;SDS011;32670;51.464;11.964;2022-09-12T08:18:53;21.07;;;18.97;;
46931;SDS011;32670;51.464;11.964;2022-09-12T08:21:20;26.47;;;19.73;;
46931;SDS011;32670;51.464;11.964;2022-09-12T08:23:50;20.97;;;18.77;;
46931;SDS011;32670;51.464;11.964;2022-09-12T08:26:17;25.27;;;22.67;;
46931;SDS011;32670;51.464;11.964;2022-09-12T08:28:43;21.00;;;18.80;;
46931;SDS011;32670;51.464;11.964;2022-09-12T08:31:10;24.10;;;21.53;;
46931;SDS011;32670;51.464;11.964;2022-09-12T08:33:37;31.30;;;26.90;;
46931;SDS011;32670;51.464;11.964;2022-09-12T08:38:35;26.23;;;23.37;;
46931;SDS011;32670;51.464;11.964;2022-09-12T08:46:26;31.53;;;28.07;;
46931;SDS011;32670;51.464;11.964;2022-09-12T08:48:59;31.50;;;28.37;;
46931;SDS011;32670;51.464;11.964;2022-09-12T08:51:26;29.17;;;26.27;;
46931;SDS011;32670;51.464;11.964;2022-09-12T08:53:53;31.17;;;23.73;;
46931;SDS011;32670;51.464;11.964;2022-09-12T08:56:21;30.93;;;27.77;;
46931;SDS011;32670;51.464;11.964;2022-09-12T08:58:47;25.23;;;21.60;;
46931;SDS011;32670;51.464;11.964;2022-09-12T09:09:59;26.70;;;23.80;;
46931;SDS011;32670;51.464;11.964;2022-09-12T09:12:42;28.13;;;25.13;;
46931;SDS011;32670;51.464;11.964;2022-09-12T09:18:23;27.67;;;24.73;;
46931;SDS011;32670;51.464;11.964;2022-09-12T09:20:55;26.47;;;23.87;;
46931;SDS011;32670;51.464;11.964;2022-09-12T09:23:30;24.53;;;22.13;;
46931;SDS011;32670;51.464;11.964;2022-09-12T09:28:40;26.93;;;24.43;;
46931;SDS011;32670;51.464;11.964;2022-09-12T09:31:25;24.97;;;22.47;;
46931;SDS011;32670;51.464;11.964;2022-09-12T09:33:54;34.20;;;30.80;;
46931;SDS011;32670;51.464;11.964;2022-09-12T09:36:21;39.37;;;35.43;;
46931;SDS011;32670;51.464;11.964;2022-09-12T09:44:43;22.77;;;20.47;;
46931;SDS011;32670;51.464;11.964;2022-09-12T09:47:12;34.67;;;31.10;;
46931;SDS011;32670;51.464;11.964;2022-09-12T09:49:38;30.23;;;26.60;;
46931;SDS011;32670;51.464;11.964;2022-09-12T09:52:05;31.10;;;28.10;;
46931;SDS011;32670;51.464;11.964;2022-09-12T09:54:36;36.13;;;32.70;;
46931;SDS011;32670;51.464;11.964;2022-09-12T10:03:01;29.70;;;26.57;;
46931;SDS011;32670;51.464;11.964;2022-09-12T10:05:29;29.83;;;27.07;;
46931;SDS011;32670;51.464;11.964;2022-09-12T10:07:56;28.00;;;25.40;;
46931;SDS011;32670;51.464;11.964;2022-09-12T10:10:22;31.90;;;28.57;;
46931;SDS011;32670;51.464;11.964;2022-09-12T10:12:48;28.70;;;25.77;;
46931;SDS011;32670;51.464;11.964;2022-09-12T10:15:18;31.27;;;28.07;;
46931;SDS011;32670;51.464;11.964;2022-09-12T10:17:47;27.03;;;24.33;;
46931;SDS011;32670;51.464;11.964;2022-09-12T10:25:53;27.33;;;24.10;;
46931;SDS011;32670;51.464;11.964;2022-09-12T10:28:23;26.53;;;24.13;;
46931;SDS011;32670;51.464;11.964;2022-09-12T10:30:55;27.20;;;24.47;;
46931;SDS011;32670;51.464;11.964;2022-09-12T10:33:21;27.50;;;24.90;;
46931;SDS011;32670;51.464;11.964;2022-09-12T10:35:49;28.23;;;25.57;;
46931;SDS011;32670;51.464;11.964;2022-09-12T10:38:22;29.50;;;26.63;;
46931;SDS011;32670;51.464;11.964;2022-09-12T10:41:06;39.50;;;35.80;;
46931;SDS011;32670;51.464;11.964;2022-09-12T10:43:37;27.50;;;24.87;;
46931;SDS011;32670;51.464;11.964;2022-09-12T10:46:19;30.90;;;28.10;;
46931;SDS011;32670;51.464;11.964;2022-09-12T10:49:11;28.57;;;25.77;;
46931;SDS011;32670;51.464;11.964;2022-09-12T10:51:46;30.23;;;27.23;;
46931;SDS011;32670;51.464;11.964;2022-09-12T10:54:13;28.67;;;25.87;;
46931;SDS011;32670;51.464;11.964;2022-09-12T10:59:40;31.17;;;28.17;;
46931;SDS011;32670;51.464;11.964;2022-09-12T11:02:43;32.07;;;28.93;;
46931;SDS011;32670;51.464;11.964;2022-09-12T11:11:05;29.40;;;26.63;;
46931;SDS011;32670;51.464;11.964;2022-09-12T11:16:39;31.50;;;28.50;;
46931;SDS011;32670;51.464;11.964;2022-09-12T11:19:36;33.07;;;29.77;;
46931;SDS011;32670;51.464;11.964;2022-09-12T11:25:12;40.07;;;36.37;;
46931;SDS011;32670;51.464;11.964;2022-09-12T11:28:03;37.67;;;34.17;;
46931;SDS011;32670;51.464;11.964;2022-09-12T11:30:53;37.93;;;34.37;;
46931;SDS011;32670;51.464;11.964;2022-09-12T11:33:44;34.37;;;31.10;;
46931;SDS011;32670;51.464;11.964;2022-09-12T11:36:18;38.70;;;34.93;;
46931;SDS011;32670;51.464;11.964;2022-09-12T11:41:31;39.60;;;35.77;;
46931;SDS011;32670;51.464;11.964;2022-09-12T11:44:11;29.50;;;26.73;;
46931;SDS011;32670;51.464;11.964;2022-09-12T11:46:43;35.00;;;31.60;;
46931;SDS011;32670;51.464;11.964;2022-09-12T11:51:39;40.27;;;36.50;;
46931;SDS011;32670;51.464;11.964;2022-09-12T11:54:28;33.30;;;30.23;;
46931;SDS011;32670;51.464;11.964;2022-09-12T11:59:56;39.23;;;35.53;;
46931;SDS011;32670;51.464;11.964;2022-09-12T12:08:05;33.50;;;30.27;;
46931;SDS011;32670;51.464;11.964;2022-09-12T12:10:36;26.07;;;23.67;;
46931;SDS011;32670;51.464;11.964;2022-09-12T12:13:08;32.30;;;29.13;;
46931;SDS011;32670;51.464;11.964;2022-09-12T12:15:46;34.30;;;30.97;;
46931;SDS011;32670;51.464;11.964;2022-09-12T12:18:24;33.83;;;30.47;;
46931;SDS011;32670;51.464;11.964;2022-09-12T12:20:52;41.53;;;37.43;;
46931;SDS011;32670;51.464;11.964;2022-09-12T12:23:29;27.90;;;25.03;;
46931;SDS011;32670;51.464;11.964;2022-09-12T12:25:59;27.03;;;24.43;;
46931;SDS011;32670;51.464;11.964;2022-09-12T12:31:14;33.53;;;30.30;;
46931;SDS011;32670;51.464;11.964;2022-09-12T12:36:08;31.63;;;28.30;;
46931;SDS011;32670;51.464;11.964;2022-09-12T12:38:53;36.90;;;33.27;;
46931;SDS011;32670;51.464;11.964;2022-09-12T12:46:11;40.03;;;36.13;;
46931;SDS011;32670;51.464;11.964;2022-09-12T12:48:49;41.83;;;37.70;;
46931;SDS011;32670;51.464;11.964;2022-09-12T12:54:26;36.97;;;33.03;;
46931;SDS011;32670;51.464;11.964;2022-09-12T12:57:01;38.33;;;34.63;;
46931;SDS011;32670;51.464;11.964;2022-09-12T12:59:29;38.53;;;34.83;;
46931;SDS011;32670;51.464;11.964;2022-09-12T13:01:55;40.40;;;36.50;;
46931;SDS011;32670;51.464;11.964;2022-09-12T13:04:24;34.07;;;30.67;;
46931;SDS011;32670;51.464;11.964;2022-09-12T13:06:59;37.13;;;33.60;;
46931;SDS011;32670;51.464;11.964;2022-09-12T13:09:31;37.70;;;34.03;;
46931;SDS011;32670;51.464;11.964;2022-09-12T13:14:46;41.17;;;37.23;;
46931;SDS011;32670;51.464;11.964;2022-09-12T13:20:03;30.00;;;27.30;;
46931;SDS011;32670;51.464;11.964;2022-09-12T13:22:41;34.77;;;31.37;;
46931;SDS011;32670;51.464;11.964;2022-09-12T13:27:55;41.73;;;37.60;;
46931;SDS011;32670;51.464;11.964;2022-09-12T13:30:22;33.40;;;30.00;;
46931;SDS011;32670;51.464;11.964;2022-09-12T13:32:48;33.60;;;30.33;;
46931;SDS011;32670;51.464;11.964;2022-09-12T13:35:20;36.83;;;33.30;;
46931;SDS011;32670;51.464;11.964;2022-09-12T13:41:12;30.97;;;27.97;;
46931;SDS011;32670;51.464;11.964;2022-09-12T13:43:58;32.73;;;29.67;;
46931;SDS011;32670;51.464;11.964;2022-09-12T13:46:27;35.20;;;31.60;;
46931;SDS011;32670;51.464;11.964;2022-09-12T13:48:55;31.43;;;28.17;;
46931;SDS011;32670;51.464;11.964;2022-09-12T13:51:26;31.97;;;28.87;;
46931;SDS011;32670;51.464;11.964;2022-09-12T13:53:55;30.03;;;27.07;;
46931;SDS011;32670;51.464;11.964;2022-09-12T13:56:24;32.73;;;29.53;;
46931;SDS011;32670;51.464;11.964;2022-09-12T13:58:51;31.33;;;28.53;;
46931;SDS011;32670;51.464;11.964;2022-09-12T14:01:41;30.73;;;27.73;;
46931;SDS011;32670;51.464;11.964;2022-09-12T14:04:19;29.40;;;26.53;;
46931;SDS011;32670;51.464;11.964;2022-09-12T14:07:19;34.10;;;30.83;;
46931;SDS011;32670;51.464;11.964;2022-09-12T14:09:54;28.70;;;26.07;;
46931;SDS011;32670;51.464;11.964;2022-09-12T14:14:56;30.07;;;27.30;;
46931;SDS011;32670;51.464;11.964;2022-09-12T14:19:48;27.63;;;24.87;;
46931;SDS011;32670;51.464;11.964;2022-09-12T14:22:15;28.43;;;25.67;;
46931;SDS011;32670;51.464;11.964;2022-09-12T14:24:51;28.20;;;25.50;;
46931;SDS011;32670;51.464;11.964;2022-09-12T14:27:17;29.03;;;26.27;;
46931;SDS011;32670;51.464;11.964;2022-09-12T14:29:55;30.37;;;27.43;;
46931;SDS011;32670;51.464;11.964;2022-09-12T14:32:33;28.83;;;26.13;;
46931;SDS011;32670;51.464;11.964;2022-09-12T14:35:03;27.27;;;24.67;;
46931;SDS011;32670;51.464;11.964;2022-09-12T14:37:34;27.93;;;25.40;;
46931;SDS011;32670;51.464;11.964;2022-09-12T14:40:00;28.73;;;26.10;;
46931;SDS011;32670;51.464;11.964;2022-09-12T14:42:28;28.17;;;25.50;;
46931;SDS011;32670;51.464;11.964;2022-09-12T14:45:00;27.80;;;25.30;;
46931;SDS011;32670;51.464;11.964;2022-09-12T14:47:32;34.80;;;31.57;;
46931;SDS011;32670;51.464;11.964;2022-09-12T14:50:02;28.37;;;25.70;;
46931;SDS011;32670;51.464;11.964;2022-09-12T14:52:29;29.33;;;26.73;;
46931;SDS011;32670;51.464;11.964;2022-09-12T14:55:01;27.97;;;25.47;;
46931;SDS011;32670;51.464;11.964;2022-09-12T14:57:45;33.17;;;30.17;;
46931;SDS011;32670;51.464;11.964;2022-09-12T15:02:37;33.80;;;30.60;;
46931;SDS011;32670;51.464;11.964;2022-09-12T15:10:05;35.37;;;31.97;;
46931;SDS011;32670;51.464;11.964;2022-09-12T15:12:40;33.93;;;30.80;;
46931;SDS011;32670;51.464;11.964;2022-09-12T15:15:12;36.30;;;32.83;;
46931;SDS011;32670;51.464;11.964;2022-09-12T15:17:44;38.60;;;34.80;;
46931;SDS011;32670;51.464;11.964;2022-09-12T15:20:10;27.63;;;24.97;;
46931;SDS011;32670;51.464;11.964;2022-09-12T15:22:38;21.30;;;19.27;;
46931;SDS011;32670;51.464;11.964;2022-09-12T15:25:05;24.33;;;22.13;;
46931;SDS011;32670;51.464;11.964;2022-09-12T15:27:31;27.00;;;24.60;;
46931;SDS011;32670;51.464;11.964;2022-09-12T15:29:57;25.40;;;23.07;;
46931;SDS011;32670;51.464;11.964;2022-09-12T15:32:23;28.70;;;25.80;;
46931;SDS011;32670;51.464;11.964;2022-09-12T15:34:51;28.47;;;25.77;;
46931;SDS011;32670;51.464;11.964;2022-09-12T15:37:18;29.50;;;26.50;;
46931;SDS011;32670;51.464;11.964;2022-09-12T15:39:44;26.30;;;23.83;;
46931;SDS011;32670;51.464;11.964;2022-09-12T15:42:10;23.07;;;20.93;;
46931;SDS011;32670;51.464;11.964;2022-09-12T15:44:37;22.53;;;20.47;;
46931;SDS011;32670;51.464;11.964;2022-09-12T15:47:02;27.67;;;24.87;;
46931;SDS011;32670;51.464;11.964;2022-09-12T15:49:28;25.03;;;22.83;;
46931;SDS011;32670;51.464;11.964;2022-09-12T15:51:53;25.27;;;22.77;;
46931;SDS011;32670;51.464;11.964;2022-09-12T15:54:19;24.50;;;22.40;;
46931;SDS011;32670;51.464;11.964;2022-09-12T15:56:44;24.67;;;22.10;;
46931;SDS011;32670;51.464;11.964;2022-09-12T15:59:10;24.23;;;21.83;;
46931;SDS011;32670;51.464;11.964;2022-09-12T16:01:35;23.47;;;21.27;;
46931;SDS011;32670;51.464;11.964;2022-09-12T16:04:01;23.70;;;21.53;;
46931;SDS011;32670;51.464;11.964;2022-09-12T16:06:27;22.60;;;20.60;;
46931;SDS011;32670;51.464;11.964;2022-09-12T16:08:54;23.40;;;21.30;;
46931;SDS011;32670;51.464;11.964;2022-09-12T16:11:22;24.33;;;22.20;;
46931;SDS011;32670;51.464;11.964;2022-09-12T16:13:48;23.57;;;21.27;;
46931;SDS011;32670;51.464;11.964;2022-09-12T16:16:15;23.50;;;21.30;;
46931;SDS011;32670;51.464;11.964;2022-09-12T16:18:40;23.83;;;21.63;;
46931;SDS011;32670;51.464;11.964;2022-09-12T16:21:06;23.67;;;21.47;;
46931;SDS011;32670;51.464;11.964;2022-09-12T16:23:32;23.77;;;21.63;;
46931;SDS011;32670;51.464;11.964;2022-09-12T16:26:02;24.30;;;22.10;;
46931;SDS011;32670;51.464;11.964;2022-09-12T16:28:29;25.50;;;23.03;;
46931;SDS011;32670;51.464;11.964;2022-09-12T16:30:57;24.47;;;22.17;;
46931;SDS011;32670;51.464;11.964;2022-09-12T16:33:24;25.27;;;23.07;;
46931;SDS011;32670;51.464;11.964;2022-09-12T16:35:50;25.30;;;23.00;;
46931;SDS011;32670;51.464;11.964;2022-09-12T16:38:19;26.97;;;24.57;;
46931;SDS011;32670;51.464;11.964;2022-09-12T16:40:45;26.77;;;24.17;;
46931;SDS011;32670;51.464;11.964;2022-09-12T16:43:10;25.07;;;22.67;;